Time;durP1;ratioP1;P1;durP2;ratioP2;P2;SDS_P1;SDS_P2;PMS_P1;PMS_P2;Temp;Humidity;BMP_temperature;BMP_pressure;BME280_temperature;BME280_humidity;BME280_pressure;Samples;Min_cycle;Max_cycle;Signal;HPM_P1;HPM_P2
2024/03/08 00:00:42;;;;;;;;;;;3.80;99.90;;;;;;4980194;28;19914;-78
2024/03/08 00:03:09;;;;;;;;;;;3.80;99.90;;;;;;4963620;28;19921;-77
2024/03/08 00:05:35;;;;;;;;;;;3.70;99.90;;;;;;4979000;28;20323;-78
2024/03/08 00:08:01;;;;;;;;;;;3.80;99.90;;;;;;4979298;28;19918;-78
2024/03/08 00:10:28;;;;;;;;;;;3.80;99.90;;;;;;4979484;28;19984;-78
2024/03/08 00:12:54;;;;;;;;;;;3.70;99.90;;;;;;4952440;28;19968;-79
2024/03/08 00:15:22;;;;;;;;;;;3.70;99.90;;;;;;4966364;28;19925;-79
2024/03/08 00:17:48;;;;;;;;;;;3.70;99.90;;;;;;4937858;28;19918;-79
2024/03/08 00:20:14;;;;;;;;;;;3.60;99.90;;;;;;4977511;28;19917;-79
2024/03/08 00:22:40;;;;;;;;;;;3.60;99.90;;;;;;4994085;28;19922;-78
2024/03/08 00:25:09;;;;;;;;;;;3.60;99.90;;;;;;4935311;29;20437;-78
2024/03/08 00:27:35;;;;;;;;;;;3.60;99.90;;;;;;4939056;29;19950;-79
2024/03/08 00:30:01;;;;;;;;;;;3.50;99.90;;;;;;4942752;28;19922;-79
2024/03/08 00:32:31;;;;;;;;;;;3.50;99.90;;;;;;4968292;28;19958;-79
2024/03/08 00:34:57;;;;;;;;;;;3.50;99.90;;;;;;4959058;28;19922;-78
2024/03/08 00:37:23;;;;;;;;;;;3.50;99.90;;;;;;4974303;28;19925;-78
2024/03/08 00:39:49;;;;;;;;;;;3.50;99.90;;;;;;4957799;28;20058;-78
2024/03/08 00:42:16;;;;;;;;;;;3.60;99.90;;;;;;4942362;28;20616;-79
2024/03/08 00:44:42;;;;;;;;;;;3.50;99.90;;;;;;4943234;28;19918;-79
2024/03/08 00:47:07;;;;;;;;;;;3.40;99.90;;;;;;4926886;28;19929;-78
2024/03/08 00:49:33;;;;;;;;;;;3.50;99.90;;;;;;4959057;28;19918;-78
2024/03/08 00:51:59;;;;;;;;;;;3.40;99.90;;;;;;4967512;28;20013;-78
2024/03/08 00:54:24;;;;;;;;;;;3.40;99.90;;;;;;4959108;28;20004;-78
2024/03/08 00:56:50;;;;;;;;;;;3.40;99.90;;;;;;4943129;28;19925;-78
2024/03/08 00:59:16;;;;;;;;;;;3.40;99.90;;;;;;4952214;29;20251;-79
2024/03/08 01:01:42;;;;;;;;;;;3.30;99.90;;;;;;4973358;28;19926;-78
2024/03/08 01:04:07;;;;;;;;;;;3.30;99.90;;;;;;4928630;29;20236;-79
2024/03/08 01:06:34;;;;;;;;;;;3.30;99.90;;;;;;4938016;29;20242;-78
2024/03/08 01:09:00;;;;;;;;;;;3.30;99.90;;;;;;4942459;28;19934;-78
2024/03/08 01:11:27;;;;;;;;;;;3.30;99.90;;;;;;4957755;28;19932;-78
2024/03/08 01:13:53;;;;;;;;;;;3.20;99.90;;;;;;4938427;29;19928;-78
2024/03/08 01:16:21;;;;;;;;;;;3.20;99.90;;;;;;4939734;29;20009;-78
2024/03/08 01:18:46;;;;;;;;;;;3.20;99.90;;;;;;4925725;28;19936;-78
2024/03/08 01:21:12;;;;;;;;;;;3.20;99.90;;;;;;4941645;29;19918;-78
2024/03/08 01:23:38;;;;;;;;;;;3.10;99.90;;;;;;4921248;28;19925;-79
2024/03/08 01:26:04;;;;;;;;;;;3.10;99.90;;;;;;4950975;28;20397;-79
2024/03/08 01:28:29;;;;;;;;;;;3.10;99.90;;;;;;4957899;28;21535;-79
2024/03/08 01:30:55;;;;;;;;;;;3.00;99.90;;;;;;4978608;28;19914;-79
2024/03/08 01:33:22;;;;;;;;;;;3.00;99.90;;;;;;4978520;28;20334;-79
2024/03/08 01:35:48;;;;;;;;;;;3.00;99.90;;;;;;4976970;28;19917;-79
2024/03/08 01:38:14;;;;;;;;;;;3.00;99.90;;;;;;4979272;28;19918;-79
2024/03/08 01:40:41;;;;;;;;;;;3.00;99.90;;;;;;4998152;28;19932;-79
2024/03/08 01:43:19;;;;;;;;;;;2.90;99.90;;;;;;4981897;28;20645;-79
2024/03/08 01:45:46;;;;;;;;;;;2.90;99.90;;;;;;4946991;28;20263;-79
2024/03/08 01:48:12;;;;;;;;;;;2.90;99.90;;;;;;4962568;28;19977;-79
2024/03/08 01:50:39;;;;;;;;;;;2.90;99.90;;;;;;4954879;28;20004;-79
2024/03/08 01:53:05;;;;;;;;;;;2.90;99.90;;;;;;4960727;28;19993;-79
2024/03/08 01:55:31;;;;;;;;;;;2.80;99.90;;;;;;4970095;28;20053;-79
2024/03/08 01:57:56;;;;;;;;;;;2.80;99.90;;;;;;4980640;28;19917;-79
2024/03/08 02:00:23;;;;;;;;;;;2.80;99.90;;;;;;4980129;28;20335;-79
2024/03/08 02:02:50;;;;;;;;;;;2.60;99.90;;;;;;4959984;28;19922;-79
2024/03/08 02:05:16;;;;;;;;;;;;;;;;;;4979430;28;19914;-79
2024/03/08 02:07:44;;;;;;;;;;;2.60;99.90;;;;;;4992688;28;19918;-79
2024/03/08 02:10:12;;;;;;;;;;;2.50;99.90;;;;;;4941332;28;19929;-77
2024/03/08 02:12:38;;;;;;;;;;;2.50;99.90;;;;;;4958947;28;19918;-77
2024/03/08 02:15:06;;;;;;;;;;;2.50;99.90;;;;;;4947635;28;19914;-77
2024/03/08 02:17:33;;;;;;;;;;;2.50;99.90;;;;;;4981110;28;20017;-78
2024/03/08 02:20:01;;;;;;;;;;;2.40;99.90;;;;;;4996855;28;19961;-78
2024/03/08 02:22:28;;;;;;;;;;;2.40;99.90;;;;;;4972773;28;19945;-78
2024/03/08 02:24:55;;;;;;;;;;;2.40;99.90;;;;;;4946921;28;20390;-78
2024/03/08 02:27:25;;;;;;;;;;;2.40;99.90;;;;;;4977109;28;19914;-78
2024/03/08 02:29:50;;;;;;;;;;;2.40;99.90;;;;;;4961226;28;20017;-78
2024/03/08 02:32:16;;;;;;;;;;;2.40;99.90;;;;;;4943908;28;20013;-78
2024/03/08 02:34:42;;;;;;;;;;;2.30;99.90;;;;;;4934217;29;19957;-78
2024/03/08 02:37:08;;;;;;;;;;;2.40;99.90;;;;;;4930793;29;20390;-78
2024/03/08 02:39:34;;;;;;;;;;;2.30;99.90;;;;;;4952419;28;19932;-78
2024/03/08 02:41:59;;;;;;;;;;;2.30;99.90;;;;;;4946029;28;20044;-78
2024/03/08 02:44:25;;;;;;;;;;;2.30;99.90;;;;;;4959976;28;20633;-77
2024/03/08 02:46:51;;;;;;;;;;;2.30;99.90;;;;;;4970907;28;19920;-77
2024/03/08 02:49:16;;;;;;;;;;;2.30;99.90;;;;;;4945109;28;19922;-77
2024/03/08 02:51:42;;;;;;;;;;;2.30;99.90;;;;;;4926493;28;19914;-77
2024/03/08 02:54:08;;;;;;;;;;;2.30;99.90;;;;;;4952876;28;19965;-78
2024/03/08 02:56:34;;;;;;;;;;;2.20;99.90;;;;;;4945639;28;20013;-78
2024/03/08 02:59:01;;;;;;;;;;;2.20;99.90;;;;;;4911965;29;19922;-77
2024/03/08 03:01:27;;;;;;;;;;;2.20;99.90;;;;;;4956308;28;19957;-77
2024/03/08 03:03:53;;;;;;;;;;;2.20;99.90;;;;;;4942633;28;19980;-77
2024/03/08 03:06:20;;;;;;;;;;;2.10;99.90;;;;;;4948244;29;20037;-77
2024/03/08 03:08:46;;;;;;;;;;;2.10;99.90;;;;;;4937430;28;20279;-78
2024/03/08 03:11:13;;;;;;;;;;;2.10;99.90;;;;;;4936808;29;19978;-77
2024/03/08 03:13:39;;;;;;;;;;;2.00;99.90;;;;;;4912905;29;19918;-77
2024/03/08 03:16:05;;;;;;;;;;;2.00;99.90;;;;;;4957011;28;20323;-77
2024/03/08 03:18:32;;;;;;;;;;;2.00;99.90;;;;;;4959209;28;19929;-77
2024/03/08 03:20:58;;;;;;;;;;;2.00;99.90;;;;;;4946063;28;20067;-78
2024/03/08 03:23:25;;;;;;;;;;;2.00;99.90;;;;;;4949060;28;20020;-77
2024/03/08 03:25:52;;;;;;;;;;;2.00;99.90;;;;;;4965030;28;19997;-77
2024/03/08 03:28:21;;;;;;;;;;;1.80;99.90;;;;;;4980572;28;19945;-77
2024/03/08 03:30:47;;;;;;;;;;;2.00;99.90;;;;;;4980803;28;19918;-77
2024/03/08 03:33:14;;;;;;;;;;;2.00;99.90;;;;;;4964127;28;20298;-77
2024/03/08 03:35:41;;;;;;;;;;;1.90;99.90;;;;;;4995880;28;20000;-77
2024/03/08 03:38:07;;;;;;;;;;;1.90;99.90;;;;;;4963886;28;19925;-77
2024/03/08 03:40:36;;;;;;;;;;;1.90;99.90;;;;;;4996315;28;19914;-77
2024/03/08 03:43:02;;;;;;;;;;;1.90;99.90;;;;;;4963998;28;19996;-77
2024/03/08 03:45:28;;;;;;;;;;;1.80;99.90;;;;;;4959729;28;19934;-77
2024/03/08 03:47:54;;;;;;;;;;;1.90;99.90;;;;;;4953792;28;20351;-77
2024/03/08 03:50:19;;;;;;;;;;;2.00;99.90;;;;;;4950899;28;19917;-77
2024/03/08 03:52:48;;;;;;;;;;;1.90;99.90;;;;;;4954957;28;20375;-78
2024/03/08 03:55:14;;;;;;;;;;;1.90;99.90;;;;;;4958891;28;19918;-77
2024/03/08 03:57:40;;;;;;;;;;;1.90;99.90;;;;;;4951291;28;19973;-77
2024/03/08 04:00:09;;;;;;;;;;;1.90;99.90;;;;;;4964444;28;20016;-78
2024/03/08 04:02:38;;;;;;;;;;;1.90;99.90;;;;;;4978119;28;19918;-77
2024/03/08 04:05:07;;;;;;;;;;;1.90;99.90;;;;;;4944474;28;19914;-76
2024/03/08 04:07:34;;;;;;;;;;;1.80;99.90;;;;;;4961171;28;20327;-77
2024/03/08 04:10:00;;;;;;;;;;;1.90;99.90;;;;;;4958070;28;19928;-77
2024/03/08 04:12:26;;;;;;;;;;;1.90;99.90;;;;;;4964129;28;19913;-78
2024/03/08 04:14:53;;;;;;;;;;;1.90;99.90;;;;;;4979481;28;19972;-78
2024/03/08 04:17:18;;;;;;;;;;;2.00;99.90;;;;;;4958348;28;19964;-77
2024/03/08 04:19:44;;;;;;;;;;;1.80;99.90;;;;;;4996195;28;20012;-77
2024/03/08 04:22:10;;;;;;;;;;;1.90;99.90;;;;;;4976907;28;19934;-77
2024/03/08 04:24:35;;;;;;;;;;;1.80;99.90;;;;;;4966297;28;19925;-77
2024/03/08 04:27:01;;;;;;;;;;;1.80;99.90;;;;;;4971968;28;19921;-77
2024/03/08 04:29:28;;;;;;;;;;;1.80;99.90;;;;;;4967673;28;19918;-78
2024/03/08 04:31:54;;;;;;;;;;;1.80;99.90;;;;;;4948747;29;19919;-78
2024/03/08 04:34:20;;;;;;;;;;;1.80;99.90;;;;;;4938993;28;20246;-77
2024/03/08 04:36:46;;;;;;;;;;;1.80;99.90;;;;;;4959886;28;19918;-77
2024/03/08 04:39:12;;;;;;;;;;;1.80;99.90;;;;;;4966535;28;20014;-78
2024/03/08 04:41:38;;;;;;;;;;;1.80;99.90;;;;;;4944477;28;19949;-77
2024/03/08 04:44:04;;;;;;;;;;;1.80;99.90;;;;;;4960851;28;19918;-77
2024/03/08 04:46:30;;;;;;;;;;;1.80;99.90;;;;;;4941512;28;19930;-77
2024/03/08 04:48:55;;;;;;;;;;;1.70;99.90;;;;;;4928106;28;19930;-77
2024/03/08 04:51:21;;;;;;;;;;;1.70;99.90;;;;;;4952677;28;19956;-76
2024/03/08 04:53:46;;;;;;;;;;;1.80;99.90;;;;;;4924789;29;20154;-77
2024/03/08 04:56:12;;;;;;;;;;;1.70;99.90;;;;;;4930711;29;20342;-77
2024/03/08 04:58:38;;;;;;;;;;;1.80;99.90;;;;;;4927713;28;19918;-77
2024/03/08 05:01:03;;;;;;;;;;;1.80;99.90;;;;;;4952182;28;19914;-77
2024/03/08 05:03:30;;;;;;;;;;;1.80;99.90;;;;;;4943301;28;19918;-76
2024/03/08 05:05:56;;;;;;;;;;;1.70;99.90;;;;;;4959844;28;19914;-76
2024/03/08 05:08:23;;;;;;;;;;;1.80;99.90;;;;;;4958993;28;19914;-77
2024/03/08 05:10:49;;;;;;;;;;;1.70;99.90;;;;;;4942668;28;19997;-77
2024/03/08 05:13:14;;;;;;;;;;;1.70;99.90;;;;;;4970561;28;20001;-77
2024/03/08 05:15:40;;;;;;;;;;;1.70;99.90;;;;;;4939719;29;20001;-77
2024/03/08 05:18:05;;;;;;;;;;;1.70;99.90;;;;;;4941469;28;20334;-76
2024/03/08 05:20:31;;;;;;;;;;;1.70;99.90;;;;;;4912641;28;19922;-77
2024/03/08 05:23:00;;;;;;;;;;;1.70;99.90;;;;;;4942402;28;19930;-77
2024/03/08 05:25:26;;;;;;;;;;;1.70;99.90;;;;;;4992602;28;19980;-76
2024/03/08 05:27:52;;;;;;;;;;;1.60;99.90;;;;;;4964018;28;19933;-77
2024/03/08 05:30:17;;;;;;;;;;;1.70;99.90;;;;;;4979360;28;19913;-79
2024/03/08 05:32:44;;;;;;;;;;;1.70;99.90;;;;;;4978838;28;20707;-77
2024/03/08 05:35:16;;;;;;;;;;;1.70;99.90;;;;;;4971980;28;20205;-77
2024/03/08 05:37:42;;;;;;;;;;;1.70;99.90;;;;;;4978972;28;19917;-77
2024/03/08 05:40:09;;;;;;;;;;;1.60;99.90;;;;;;4975103;28;20009;-77
2024/03/08 05:42:36;;;;;;;;;;;1.60;99.90;;;;;;4947300;28;20647;-78
2024/03/08 05:45:02;;;;;;;;;;;1.60;99.90;;;;;;4974887;28;20004;-78
2024/03/08 05:47:28;;;;;;;;;;;1.70;99.90;;;;;;4938902;28;19968;-78
2024/03/08 05:49:54;;;;;;;;;;;1.60;99.90;;;;;;4988841;28;19914;-77
2024/03/08 05:52:20;;;;;;;;;;;1.50;99.90;;;;;;4927188;28;19921;-77
2024/03/08 05:54:47;;;;;;;;;;;1.50;99.90;;;;;;4970378;28;19913;-77
2024/03/08 05:57:16;;;;;;;;;;;1.50;99.90;;;;;;4978525;28;19918;-78
2024/03/08 05:59:42;;;;;;;;;;;1.50;99.90;;;;;;4949629;28;19972;-77
2024/03/08 06:02:08;;;;;;;;;;;1.50;99.90;;;;;;4976958;28;19921;-77
2024/03/08 06:04:35;;;;;;;;;;;1.50;99.90;;;;;;4962158;28;20258;-77
2024/03/08 06:07:03;;;;;;;;;;;1.50;99.90;;;;;;4973908;28;19977;-77
2024/03/08 06:09:28;;;;;;;;;;;1.50;99.90;;;;;;4974779;28;19918;-77
2024/03/08 06:11:54;;;;;;;;;;;1.50;99.90;;;;;;4974787;28;19977;-79
2024/03/08 06:14:20;;;;;;;;;;;1.50;99.90;;;;;;4977613;28;20322;-80
2024/03/08 06:16:46;;;;;;;;;;;1.50;99.90;;;;;;4994932;28;19982;-78
2024/03/08 06:19:12;;;;;;;;;;;1.60;99.90;;;;;;4961723;28;20281;-78
2024/03/08 06:21:38;;;;;;;;;;;1.60;99.90;;;;;;4946314;28;19971;-78
2024/03/08 06:24:04;;;;;;;;;;;1.60;99.90;;;;;;4969259;28;19949;-79
2024/03/08 06:26:29;;;;;;;;;;;1.60;99.90;;;;;;4962697;28;19928;-78
2024/03/08 06:28:55;;;;;;;;;;;1.60;99.90;;;;;;4946338;28;20012;-78
2024/03/08 06:31:21;;;;;;;;;;;1.60;99.90;;;;;;4930720;28;19918;-78
2024/03/08 06:33:49;;;;;;;;;;;1.60;99.90;;;;;;4946689;28;20013;-78
2024/03/08 06:36:18;;;;;;;;;;;1.70;99.90;;;;;;4931655;28;19945;-77
2024/03/08 06:38:48;;;;;;;;;;;1.70;99.90;;;;;;4968709;28;20360;-78
2024/03/08 06:41:15;;;;;;;;;;;1.70;99.90;;;;;;4970892;28;19918;-78
2024/03/08 06:43:45;;;;;;;;;;;1.80;99.90;;;;;;4962691;28;19914;-78
2024/03/08 06:46:12;;;;;;;;;;;1.80;99.90;;;;;;4954381;28;19918;-78
2024/03/08 06:48:38;;;;;;;;;;;1.70;99.90;;;;;;4914036;29;20292;-78
2024/03/08 06:51:05;;;;;;;;;;;1.70;99.90;;;;;;4946662;29;19934;-78
2024/03/08 06:53:31;;;;;;;;;;;1.80;99.90;;;;;;4941241;28;19925;-77
2024/03/08 06:55:57;;;;;;;;;;;1.80;99.90;;;;;;4978896;28;19922;-78
2024/03/08 06:58:23;;;;;;;;;;;2.00;99.90;;;;;;4961114;28;19918;-78
2024/03/08 07:00:52;;;;;;;;;;;1.90;99.90;;;;;;4952196;28;19918;-78
2024/03/08 07:03:17;;;;;;;;;;;1.90;99.90;;;;;;4961969;28;19929;-78
2024/03/08 07:05:43;;;;;;;;;;;2.10;99.90;;;;;;4962611;28;19918;-78
2024/03/08 07:08:09;;;;;;;;;;;2.00;99.90;;;;;;4966637;28;20537;-77
2024/03/08 07:10:36;;;;;;;;;;;2.00;99.90;;;;;;4936612;28;19985;-78
2024/03/08 07:13:02;;;;;;;;;;;1.90;99.90;;;;;;4945668;28;19981;-78
2024/03/08 07:15:28;;;;;;;;;;;2.00;99.90;;;;;;4955266;28;19973;-78
2024/03/08 07:17:54;;;;;;;;;;;2.20;99.90;;;;;;4946291;28;20013;-78
2024/03/08 07:20:20;;;;;;;;;;;2.10;99.90;;;;;;4942560;29;19922;-78
2024/03/08 07:22:51;;;;;;;;;;;2.20;99.90;;;;;;4968827;28;20631;-78
2024/03/08 07:25:21;;;;;;;;;;;2.10;99.90;;;;;;4916315;28;19930;-79
2024/03/08 07:27:51;;;;;;;;;;;2.10;99.90;;;;;;4973188;28;19922;-78
2024/03/08 07:33:02;;;;;;;;;;;2.30;99.90;;;;;;4928550;29;20005;-79
2024/03/08 07:35:37;;;;;;;;;;;2.30;99.90;;;;;;4932352;28;19962;-78
2024/03/08 07:38:06;;;;;;;;;;;2.40;99.90;;;;;;4947194;28;20407;-78
2024/03/08 07:40:34;;;;;;;;;;;2.40;99.90;;;;;;4957326;28;19922;-78
2024/03/08 07:43:00;;;;;;;;;;;2.50;99.90;;;;;;4950377;28;19918;-78
2024/03/08 07:45:26;;;;;;;;;;;2.50;99.90;;;;;;4966472;28;19918;-78
2024/03/08 07:47:53;;;;;;;;;;;2.50;99.90;;;;;;4960513;28;20327;-78
2024/03/08 07:50:19;;;;;;;;;;;2.60;99.90;;;;;;4944561;28;19914;-78
2024/03/08 07:52:45;;;;;;;;;;;2.70;99.90;;;;;;4945256;28;20012;-78
2024/03/08 07:55:10;;;;;;;;;;;2.80;99.90;;;;;;4960747;28;19990;-78
2024/03/08 07:57:38;;;;;;;;;;;2.80;99.90;;;;;;4976640;28;20016;-77
2024/03/08 08:00:07;;;;;;;;;;;3.00;99.90;;;;;;4950406;28;19922;-77
2024/03/08 08:02:32;;;;;;;;;;;2.90;99.90;;;;;;4976479;28;19918;-77
2024/03/08 08:04:59;;;;;;;;;;;3.00;99.90;;;;;;4935282;28;19932;-78
2024/03/08 08:07:25;;;;;;;;;;;2.90;99.90;;;;;;4960879;28;19918;-78
2024/03/08 08:09:52;;;;;;;;;;;3.10;99.90;;;;;;4944495;28;19981;-77
2024/03/08 08:12:18;;;;;;;;;;;3.00;99.90;;;;;;4945224;28;20296;-77
2024/03/08 08:14:43;;;;;;;;;;;3.10;99.90;;;;;;4961863;28;19918;-77
2024/03/08 08:17:09;;;;;;;;;;;3.20;99.90;;;;;;4942433;29;20382;-77
2024/03/08 08:19:38;;;;;;;;;;;3.30;99.90;;;;;;4929552;28;20343;-77
2024/03/08 08:22:04;;;;;;;;;;;3.30;99.90;;;;;;4961444;28;19928;-78
2024/03/08 08:24:29;;;;;;;;;;;3.40;99.90;;;;;;4973048;28;19929;-77
2024/03/08 08:26:55;;;;;;;;;;;3.40;99.90;;;;;;4979892;28;19973;-78
2024/03/08 08:29:22;;;;;;;;;;;3.50;99.90;;;;;;4977930;28;19917;-78
2024/03/08 08:31:49;;;;;;;;;;;3.60;99.90;;;;;;4962849;28;20541;-78
2024/03/08 08:34:18;;;;;;;;;;;3.60;99.90;;;;;;4963121;28;19941;-78
2024/03/08 08:36:44;;;;;;;;;;;3.60;99.90;;;;;;4995364;28;19929;-78
2024/03/08 08:39:13;;;;;;;;;;;3.80;99.90;;;;;;4977771;28;20484;-78
2024/03/08 08:41:41;;;;;;;;;;;3.90;99.90;;;;;;4962015;28;20035;-78
2024/03/08 08:44:09;;;;;;;;;;;3.90;99.90;;;;;;4976352;28;19964;-77
2024/03/08 08:46:38;;;;;;;;;;;4.00;99.90;;;;;;4960688;28;19918;-77
2024/03/08 08:49:05;;;;;;;;;;;4.10;99.90;;;;;;4976668;28;19925;-78
2024/03/08 08:51:33;;;;;;;;;;;4.20;99.90;;;;;;4961419;28;19914;-78
2024/03/08 08:53:59;;;;;;;;;;;4.20;99.90;;;;;;4985807;28;20003;-77
2024/03/08 08:56:25;;;;;;;;;;;4.30;99.90;;;;;;4944665;28;19961;-78
2024/03/08 08:58:53;;;;;;;;;;;4.40;99.90;;;;;;4961145;28;19925;-78
2024/03/08 09:01:19;;;;;;;;;;;4.40;99.90;;;;;;4976979;28;19956;-78
2024/03/08 09:03:46;;;;;;;;;;;4.50;99.90;;;;;;4976827;28;20601;-77
2024/03/08 09:06:12;;;;;;;;;;;4.60;99.90;;;;;;4977075;28;20324;-78
2024/03/08 09:08:38;;;;;;;;;;;4.70;99.90;;;;;;4969316;28;20368;-78
2024/03/08 09:11:05;;;;;;;;;;;4.70;99.90;;;;;;4981778;28;19914;-78
2024/03/08 09:13:30;;;;;;;;;;;4.80;99.90;;;;;;4962457;28;19917;-78
2024/03/08 09:15:56;;;;;;;;;;;4.90;99.90;;;;;;4978621;28;20008;-77
2024/03/08 09:18:23;;;;;;;;;;;4.90;99.90;;;;;;4985497;28;19941;-78
2024/03/08 09:31:16;;;;;;;;;;;5.30;99.90;;;;;;4899759;29;19942;-80
2024/03/08 09:34:20;;;;;;;;;;;5.40;99.90;;;;;;4856137;29;19920;-79
2024/03/08 10:01:22;;;;;;;;;;;6.40;99.90;;;;;;4755755;29;19985;-78
2024/03/08 10:03:49;;;;;;;;;;;6.60;99.90;;;;;;4757884;30;20008;-77
2024/03/08 10:06:14;;;;;;;;;;;6.60;99.90;;;;;;4788500;29;20610;-78
2024/03/08 10:08:40;;;;;;;;;;;6.70;99.90;;;;;;4918825;28;19981;-78
2024/03/08 10:11:06;;;;;;;;;;;6.80;99.90;;;;;;4946767;28;19920;-78
2024/03/08 10:13:32;;;;;;;;;;;7.00;99.90;;;;;;4961883;28;20493;-78
2024/03/08 10:15:58;;;;;;;;;;;7.10;99.90;;;;;;4997029;28;20012;-78
2024/03/08 10:18:23;;;;;;;;;;;7.20;99.90;;;;;;4977343;28;20003;-78
2024/03/08 10:21:05;;;;;;;;;;;7.30;99.90;;;;;;4997494;28;20008;-78
2024/03/08 10:23:31;;;;;;;;;;;7.40;99.90;;;;;;4960505;28;20034;-77
2024/03/08 10:25:58;;;;;;;;;;;7.50;99.90;;;;;;4957868;28;19930;-77
2024/03/08 10:28:25;;;;;;;;;;;7.60;99.90;;;;;;4957976;28;19925;-77
2024/03/08 10:30:50;;;;;;;;;;;7.80;99.90;;;;;;4945977;28;19914;-77
2024/03/08 10:33:16;;;;;;;;;;;7.90;99.90;;;;;;4961996;28;19929;-77
2024/03/08 10:35:42;;;;;;;;;;;7.90;99.90;;;;;;4946254;28;19977;-77
2024/03/08 10:38:08;;;;;;;;;;;7.90;99.90;;;;;;4961084;28;19925;-79
2024/03/08 10:40:33;;;;;;;;;;;8.10;99.90;;;;;;4948261;28;19915;-77
2024/03/08 10:42:59;;;;;;;;;;;8.30;99.90;;;;;;4929498;28;19922;-77
2024/03/08 10:45:25;;;;;;;;;;;8.30;99.90;;;;;;4961176;28;19919;-77
2024/03/08 10:47:53;;;;;;;;;;;8.40;99.90;;;;;;4944967;28;20043;-77
2024/03/08 10:50:22;;;;;;;;;;;8.60;99.90;;;;;;4943718;28;20623;-77
2024/03/08 10:52:51;;;;;;;;;;;8.70;99.90;;;;;;4961168;28;20036;-77
2024/03/08 10:55:18;;;;;;;;;;;8.80;99.90;;;;;;4929808;28;19942;-78
2024/03/08 10:57:43;;;;;;;;;;;8.90;99.90;;;;;;4945415;28;19921;-77
2024/03/08 11:00:11;;;;;;;;;;;9.20;99.90;;;;;;4961142;28;20005;-77
2024/03/08 11:02:38;;;;;;;;;;;9.20;99.90;;;;;;4962605;28;19981;-78
2024/03/08 11:05:03;;;;;;;;;;;9.30;99.90;;;;;;4942329;29;19918;-77
2024/03/08 11:07:42;;;;;;;;;;;9.40;99.90;;;;;;4928153;28;19953;-77
2024/03/08 11:10:18;;;;;;;;;;;9.60;99.90;;;;;;4933343;29;19923;-77
2024/03/08 11:12:43;;;;;;;;;;;9.80;99.90;;;;;;4935735;28;19948;-79
2024/03/08 11:15:10;;;;;;;;;;;9.90;99.90;;;;;;4960214;28;19922;-77
2024/03/08 11:17:37;;;;;;;;;;;9.90;99.90;;;;;;4952094;28;19938;-77
2024/03/08 11:20:05;;;;;;;;;;;10.10;99.90;;;;;;4943986;29;19923;-77
2024/03/08 11:22:32;;;;;;;;;;;10.20;99.90;;;;;;4955959;28;19918;-77
2024/03/08 11:24:59;;;;;;;;;;;10.50;99.90;;;;;;4948051;28;19930;-78
2024/03/08 11:27:29;;;;;;;;;;;10.70;99.90;;;;;;4992253;28;19923;-78
2024/03/08 11:30:10;;;;;;;;;;;10.60;99.60;;;;;;4983115;28;19924;-78
2024/03/08 11:32:37;;;;;;;;;;;10.60;99.10;;;;;;4984773;28;19914;-78
2024/03/08 11:35:05;;;;;;;;;;;10.80;98.20;;;;;;4992543;28;20338;-77
2024/03/08 11:37:32;;;;;;;;;;;11.10;98.50;;;;;;4980138;28;19946;-77
2024/03/08 11:39:58;;;;;;;;;;;10.80;96.90;;;;;;4962562;28;19945;-77
2024/03/08 11:42:28;;;;;;;;;;;10.80;97.50;;;;;;4963001;28;19932;-76
2024/03/08 11:44:54;;;;;;;;;;;10.90;98.00;;;;;;4958431;28;19914;-77
2024/03/08 11:47:20;;;;;;;;;;;10.90;97.40;;;;;;4953820;28;20000;-77
2024/03/08 11:49:48;;;;;;;;;;;11.20;97.40;;;;;;4979777;28;19914;-77
2024/03/08 11:52:16;;;;;;;;;;;11.50;99.90;;;;;;4978803;28;19924;-77
2024/03/08 11:54:43;;;;;;;;;;;12.40;99.90;;;;;;4947582;28;19923;-77
2024/03/08 11:57:10;;;;;;;;;;;12.80;99.90;;;;;;4963075;28;19917;-78
2024/03/08 11:59:36;;;;;;;;;;;13.30;99.50;;;;;;4975466;28;19928;-78
2024/03/08 12:02:05;;;;;;;;;;;13.20;97.70;;;;;;4989440;28;19918;-77
2024/03/08 12:04:31;;;;;;;;;;;13.50;99.10;;;;;;4978184;28;20224;-77
2024/03/08 12:07:08;;;;;;;;;;;13.60;97.60;;;;;;4978626;28;19981;-76
2024/03/08 12:09:36;;;;;;;;;;;13.80;97.10;;;;;;4997163;28;19925;-77
2024/03/08 12:12:03;;;;;;;;;;;13.80;96.20;;;;;;4982818;28;19917;-77
2024/03/08 12:14:28;;;;;;;;;;;13.80;95.20;;;;;;4994074;28;19960;-77
2024/03/08 12:16:54;;;;;;;;;;;13.90;94.80;;;;;;4963141;28;19953;-77
2024/03/08 12:19:20;;;;;;;;;;;13.70;93.60;;;;;;4979517;28;20012;-77
2024/03/08 12:21:48;;;;;;;;;;;13.70;94.50;;;;;;4994666;28;19917;-77
2024/03/08 12:24:16;;;;;;;;;;;13.70;93.90;;;;;;4944688;28;19972;-77
2024/03/08 12:26:42;;;;;;;;;;;13.70;94.30;;;;;;4934864;28;19949;-79
2024/03/08 12:29:27;;;;;;;;;;;13.90;94.00;;;;;;4993248;28;19976;-78
2024/03/08 12:32:04;;;;;;;;;;;14.20;95.10;;;;;;4957171;28;19922;-79
2024/03/08 12:34:31;;;;;;;;;;;14.50;94.00;;;;;;4981628;28;19918;-80
2024/03/08 12:36:57;;;;;;;;;;;14.60;93.50;;;;;;4979959;28;20053;-79
2024/03/08 12:39:27;;;;;;;;;;;14.90;93.20;;;;;;4978831;28;20343;-78
2024/03/08 12:42:02;;;;;;;;;;;15.00;93.40;;;;;;4958701;28;19953;-80
2024/03/08 12:44:28;;;;;;;;;;;15.20;92.40;;;;;;4961564;28;19932;-79
2024/03/08 12:46:54;;;;;;;;;;;15.30;92.30;;;;;;4946065;28;19914;-79
2024/03/08 12:49:22;;;;;;;;;;;15.40;91.80;;;;;;4973571;28;19928;-79
2024/03/08 12:51:47;;;;;;;;;;;15.40;89.80;;;;;;5000291;28;19922;-80
2024/03/08 12:54:13;;;;;;;;;;;15.70;90.90;;;;;;4984681;28;20036;-80
2024/03/08 12:56:39;;;;;;;;;;;15.70;90.90;;;;;;4954466;28;19914;-80
2024/03/08 12:59:07;;;;;;;;;;;16.00;88.70;;;;;;4949260;28;19918;-80
2024/03/08 13:01:33;;;;;;;;;;;16.10;90.00;;;;;;4992875;28;19925;-80
2024/03/08 13:04:01;;;;;;;;;;;16.20;90.00;;;;;;4979992;28;19914;-80
2024/03/08 13:06:32;;;;;;;;;;;16.50;86.50;;;;;;4964667;28;20243;-80
2024/03/08 13:08:58;;;;;;;;;;;16.70;86.50;;;;;;4980375;28;19929;-80
2024/03/08 13:11:24;;;;;;;;;;;17.00;86.80;;;;;;4972208;28;19976;-79
2024/03/08 13:13:50;;;;;;;;;;;17.20;83.50;;;;;;4999715;28;19918;-80
2024/03/08 13:16:17;;;;;;;;;;;17.10;82.60;;;;;;4967485;28;19928;-80
2024/03/08 13:18:43;;;;;;;;;;;16.90;80.10;;;;;;5003232;28;19921;-80
2024/03/08 13:21:09;;;;;;;;;;;16.50;81.50;;;;;;4979370;28;19972;-79
2024/03/08 13:23:42;;;;;;;;;;;16.80;81.00;;;;;;4944016;28;19932;-80
2024/03/08 13:26:08;;;;;;;;;;;16.70;81.00;;;;;;4961778;28;19949;-80
2024/03/08 13:28:37;;;;;;;;;;;16.90;84.20;;;;;;4954008;28;19929;-79
2024/03/08 13:31:06;;;;;;;;;;;17.20;82.00;;;;;;4960639;28;20454;-79
2024/03/08 13:33:35;;;;;;;;;;;16.80;82.30;;;;;;4942830;28;19969;-79
2024/03/08 13:36:01;;;;;;;;;;;17.10;81.70;;;;;;4957540;28;19918;-80
2024/03/08 13:38:27;;;;;;;;;;;17.30;81.40;;;;;;4977289;28;19932;-80
2024/03/08 13:40:53;;;;;;;;;;;17.40;82.30;;;;;;4944205;28;19914;-80
2024/03/08 13:43:18;;;;;;;;;;;17.20;78.30;;;;;;4967895;28;19922;-79
2024/03/08 13:45:44;;;;;;;;;;;17.10;80.70;;;;;;4955612;28;19929;-79
2024/03/08 13:48:12;;;;;;;;;;;17.10;78.60;;;;;;4942427;28;20254;-80
2024/03/08 13:50:38;;;;;;;;;;;16.90;78.80;;;;;;4972739;28;20006;-79
2024/03/08 13:53:04;;;;;;;;;;;16.90;79.00;;;;;;4974440;28;20009;-79
2024/03/08 13:55:30;;;;;;;;;;;16.20;78.00;;;;;;4948033;28;19919;-79
2024/03/08 13:57:57;;;;;;;;;;;16.00;78.00;;;;;;4955702;28;19918;-79
2024/03/08 14:00:25;;;;;;;;;;;15.90;78.90;;;;;;4958119;28;19957;-79
2024/03/08 14:02:51;;;;;;;;;;;15.90;78.30;;;;;;4959777;28;19956;-78
2024/03/08 14:05:19;;;;;;;;;;;15.60;78.30;;;;;;4976269;28;19914;-78
2024/03/08 14:07:48;;;;;;;;;;;15.30;78.40;;;;;;4976715;28;19921;-77
2024/03/08 14:10:14;;;;;;;;;;;15.20;80.10;;;;;;4976555;28;20015;-76
2024/03/08 14:12:42;;;;;;;;;;;14.90;78.20;;;;;;4941010;29;19930;-78
2024/03/08 14:15:08;;;;;;;;;;;14.50;78.80;;;;;;4945025;28;20004;-77
2024/03/08 14:17:34;;;;;;;;;;;14.80;79.20;;;;;;4943008;28;20005;-77
2024/03/08 14:19:59;;;;;;;;;;;15.40;79.40;;;;;;4949312;29;19914;-78
2024/03/08 14:22:25;;;;;;;;;;;15.30;79.00;;;;;;4942564;28;19922;-78
2024/03/08 14:24:51;;;;;;;;;;;15.10;77.10;;;;;;4966007;28;20041;-78
2024/03/08 14:27:18;;;;;;;;;;;14.60;77.30;;;;;;4964260;28;20089;-78
2024/03/08 14:29:44;;;;;;;;;;;14.90;78.40;;;;;;4963303;28;19918;-78
2024/03/08 14:32:10;;;;;;;;;;;14.80;77.90;;;;;;4958623;28;20017;-79
2024/03/08 14:34:35;;;;;;;;;;;14.60;78.70;;;;;;4941893;28;19977;-78
2024/03/08 14:37:05;;;;;;;;;;;14.30;80.40;;;;;;4942332;28;19918;-79
2024/03/08 14:39:33;;;;;;;;;;;14.00;79.00;;;;;;4947207;28;20361;-78
2024/03/08 14:41:59;;;;;;;;;;;14.20;81.20;;;;;;4942679;28;19993;-79
2024/03/08 14:44:25;;;;;;;;;;;13.80;79.60;;;;;;4954929;28;20010;-78
2024/03/08 14:46:57;;;;;;;;;;;13.90;80.00;;;;;;4968330;28;19990;-78
2024/03/08 14:49:23;;;;;;;;;;;13.90;78.70;;;;;;4962095;28;19918;-78
2024/03/08 14:51:49;;;;;;;;;;;14.00;78.90;;;;;;4978203;28;19983;-79
2024/03/08 14:54:14;;;;;;;;;;;14.00;79.40;;;;;;4961602;28;20646;-78
2024/03/08 14:56:43;;;;;;;;;;;14.00;79.50;;;;;;4946607;28;20360;-78
2024/03/08 14:59:09;;;;;;;;;;;13.90;79.80;;;;;;4945882;28;19918;-78
2024/03/08 15:01:35;;;;;;;;;;;14.10;79.30;;;;;;4945990;28;19922;-78